Eagle River, Alaska
Current Conditions -  °F | °C
As of 4:16 AM on Thursday 18 Dec 2014 (Local Time) from PABV Reporting Station
Clear Clear  
Wind Chill:   Ceiling: Unl
Heat Index: 14°   Visibility: 10mi
Dew Point: 12°   Wind: 6mph
Humidity: 93%   Direction: 160°SSE
Pressure: 29.57"   Gusts: NA
Location:  61.32°N, 149.58°W
Report Text: PABV 181316Z AUTO 16005KT 10SM CLR M10/M11 A2957 RMK AO1
Loading
Personal Weather Stations






























Interactive Weather Map New forecast layout! Learn more

10-Day Weather Forecast

Advertisements
Track Severe Weather on mobile